CW9197 Juva FI current weather conditions

sailwx.info

Wind from 070 at 4 knots gusting 9

Air temperature -0.0° C
Dewpoint -0.0° C

Last reported at 2017-Apr-29 23:05 UTC.
Time now 2017-Apr-29 23:18 UTC

Location: N 61°53' E 027°53'.
View on Google Maps.

See reports from other nearby stations

  
Tides and Currents Weather Stations Pressure Air Temp Water Temp Dewpoint Dewpoint Depression Visibility Wind Speed Wind Dir Waves Ship Positions
date/time (UTC)wind fromknots sea level pressurealtimeterstation pressurevisibilityair tempwater tempwave heightnotes
2017-Apr-29 23:05 070 4 gusting 9 -0.0
2017-Apr-29 22:55 071 3 gusting 6 -0.0
2017-Apr-29 22:45 065 5 gusting 10 -0.0
2017-Apr-29 22:35 069 6 gusting 11 -0.0
2017-Apr-29 22:25 066 5 gusting 10 -0.0
2017-Apr-29 22:15 068 6 gusting 14 -0.0
2017-Apr-29 22:05 061 5 gusting 12 -0.6
2017-Apr-29 21:55 059 6 gusting 12 -0.6
2017-Apr-29 21:45 062 6 gusting 14 -0.6
2017-Apr-29 21:35 061 6 gusting 13 -0.6
2017-Apr-29 21:25 060 6 gusting 11 -0.6
2017-Apr-29 21:15 063 6 gusting 13 -0.6
2017-Apr-29 21:05 053 6 gusting 11 -0.6
2017-Apr-29 20:55 058 5 gusting 8 -0.6
2017-Apr-29 20:45 055 5 gusting 7 -0.6
2017-Apr-29 20:35 052 5 gusting 12 -0.6
2017-Apr-29 20:25 058 6 gusting 13 -0.6
2017-Apr-29 20:15 055 6 gusting 13 -0.6
2017-Apr-29 20:05 057 7 gusting 13 -0.6
2017-Apr-29 19:55 059 6 gusting 13 -0.6
2017-Apr-29 19:45 059 6 gusting 12 -0.6
2017-Apr-29 19:35 060 7 gusting 14 -0.6
2017-Apr-29 19:25 058 7 gusting 17 -0.6
2017-Apr-29 19:15 058 7 gusting 13 -0.6
2017-Apr-29 19:05 059 8 gusting 15 -0.6
2017-Apr-29 18:55 058 7 gusting 17 -0.6
2017-Apr-29 18:45 058 9 gusting 16 -0.6
2017-Apr-29 18:35 060 10 gusting 18 -0.6
2017-Apr-29 18:25 063 9 gusting 17 -0.6
2017-Apr-29 18:15 055 9 gusting 19 -0.6
2017-Apr-29 18:05 059 9 gusting 19 -0.6
2017-Apr-29 17:55 056 7 gusting 15 -0.6
2017-Apr-29 17:45 059 10 gusting 18 -0.6
2017-Apr-29 17:35 058 9 gusting 17 -0.6
2017-Apr-29 17:25 055 8 gusting 16 -0.6
2017-Apr-29 17:15 066 7 gusting 17 -0.6
2017-Apr-29 17:05 050 6 gusting 13 -0.6
2017-Apr-29 16:55 062 6 gusting 13 -0.6
2017-Apr-29 16:45 060 8 gusting 15 -0.6
2017-Apr-29 16:35 055 7 gusting 19 -0.6
2017-Apr-29 16:25 057 9 gusting 18 -0.6
2017-Apr-29 16:15 054 8 gusting 18 -0.6
2017-Apr-29 16:05 055 6 gusting 12 -0.6
2017-Apr-29 15:55 055 6 gusting 15 -0.6
2017-Apr-29 15:45 055 6 gusting 15 -0.6
2017-Apr-29 15:35 055 7 gusting 19 -0.0
2017-Apr-29 15:25 063 8 gusting 14 -0.0
2017-Apr-29 15:15 058 11 gusting 17 1.1
2017-Apr-29 15:05 059 10 gusting 19 1.7
2017-Apr-29 14:55 059 13 gusting 19 2.2
2017-Apr-29 14:45 065 9 gusting 21 2.8
2017-Apr-29 14:35 059 11 gusting 20 2.8
2017-Apr-29 14:25 058 11 gusting 18 2.8
2017-Apr-29 14:15 058 12 gusting 19 2.8
2017-Apr-29 14:05 060 10 gusting 19 2.8
2017-Apr-29 13:55 060 9 gusting 18 2.8
2017-Apr-29 13:45 055 7 gusting 14 2.8
2017-Apr-29 13:35 056 9 gusting 20 2.8
2017-Apr-29 13:25 059 10 gusting 17 2.8
2017-Apr-29 13:15 055 10 gusting 19 2.8
2017-Apr-29 13:05 059 6 gusting 13 2.8
2017-Apr-29 12:55 058 10 gusting 18 2.8
2017-Apr-29 12:45 058 8 gusting 19 2.8
2017-Apr-29 12:35 059 7 gusting 14 2.8
2017-Apr-29 12:25 064 9 gusting 16 2.8
2017-Apr-29 12:15 059 9 gusting 17 3.3
2017-Apr-29 12:05 063 10 gusting 17 3.3
2017-Apr-29 11:55 059 12 gusting 23 3.3
2017-Apr-29 11:45 060 7 gusting 14 3.3
2017-Apr-29 11:35 060 7 gusting 14 3.3
2017-Apr-29 11:25 060 13 gusting 21 3.3
2017-Apr-29 11:15 064 6 gusting 13 3.3
2017-Apr-29 11:05 059 7 gusting 15 3.3
2017-Apr-29 10:55 063 7 gusting 12 3.3
2017-Apr-29 10:45 062 10 gusting 18 3.3
2017-Apr-29 10:35 061 9 gusting 16 3.3
2017-Apr-29 10:25 056 8 gusting 18 3.3
2017-Apr-29 10:15 065 6 gusting 15 3.3
2017-Apr-29 10:05 060 9 gusting 17 2.8
2017-Apr-29 09:55 059 10 gusting 18 2.8
2017-Apr-29 09:45 061 7 gusting 15 2.8
2017-Apr-29 09:35 059 10 gusting 17 2.8
2017-Apr-29 09:25 055 8 gusting 16 2.8
2017-Apr-29 09:15 058 9 gusting 18 2.8
2017-Apr-29 09:05 063 11 gusting 18 2.8
2017-Apr-29 08:55 054 6 gusting 16 3.3
2017-Apr-29 08:45 058 7 gusting 18 2.8
2017-Apr-29 08:35 060 6 gusting 17 2.8
2017-Apr-29 08:25 062 7 gusting 15 2.8
2017-Apr-29 08:15 061 11 gusting 17 2.2
2017-Apr-29 08:05 061 7 gusting 17 2.8
2017-Apr-29 07:55 058 9 gusting 17 2.8
2017-Apr-29 07:45 071 7 gusting 19 2.8
2017-Apr-29 07:35 073 7 gusting 16 2.2
2017-Apr-29 07:25 059 10 gusting 18 2.2
2017-Apr-29 07:15 059 7 gusting 19 2.2
2017-Apr-29 07:05 063 8 gusting 16 2.2
2017-Apr-29 06:55 065 6 gusting 15 2.2
2017-Apr-29 06:45 068 7 gusting 14 2.2
2017-Apr-29 06:35 061 6 gusting 13 2.2
2017-Apr-29 06:25 066 9 gusting 17 2.2
2017-Apr-29 06:15 067 6 gusting 12 2.2
2017-Apr-29 06:05 070 6 gusting 13 2.2
2017-Apr-29 05:55 061 6 gusting 14 1.7
2017-Apr-29 05:45 066 8 gusting 15 1.7
2017-Apr-29 05:35 067 6 gusting 13 1.7
2017-Apr-29 05:25 062 8 gusting 16 1.7
2017-Apr-29 05:15 070 6 gusting 13 1.7
2017-Apr-29 05:05 073 5 gusting 9 1.1
2017-Apr-29 04:55 062 6 gusting 16 1.1
2017-Apr-29 04:45 057 6 gusting 14 1.1
2017-Apr-29 04:35 060 8 gusting 15 1.1
2017-Apr-29 04:25 061 6 gusting 15 0.6
2017-Apr-29 04:15 061 5 gusting 14 0.6
2017-Apr-29 04:05 060 6 gusting 13 0.6
2017-Apr-29 03:55 061 6 gusting 12 -0.0
2017-Apr-29 03:45 060 5 gusting 12 -0.6
2017-Apr-29 03:35 057 5 gusting 9 -1.1
2017-Apr-29 03:25 060 6 gusting 13 -1.1
2017-Apr-29 03:15 059 5 gusting 10 -1.7
2017-Apr-29 03:05 061 5 gusting 10 -1.7
2017-Apr-29 02:55 055 4 gusting 8 -1.7
2017-Apr-29 02:45 056 4 gusting 10 -1.7
2017-Apr-29 02:35 056 4 gusting 7 -1.7
2017-Apr-29 02:25 058 3 gusting 7 -1.7
2017-Apr-29 02:15 057 3 gusting 7 -2.2
2017-Apr-29 02:05 053 2 gusting 6 -2.2
2017-Apr-29 01:55 060 3 gusting 6 -1.7
2017-Apr-29 01:45 055 3 gusting 6 -2.2
2017-Apr-29 01:35 056 3 gusting 6 -1.7
2017-Apr-29 01:25 057 3 gusting 6 -1.7
2017-Apr-29 01:15 054 3 gusting 7 -1.7
2017-Apr-29 01:05 049 2 gusting 6 -1.7
2017-Apr-29 00:55 056 2 gusting 7 -1.7
2017-Apr-29 00:45 051 3 gusting 6 -1.7
2017-Apr-29 00:35 053 3 gusting 6 -1.7
2017-Apr-29 00:25 052 2 gusting 6 -1.7
2017-Apr-29 00:15 050 3 gusting 6 -1.7
2017-Apr-29 00:05 055 3 gusting 6 -1.7
2017-Apr-28 23:55 058 3 gusting 6 -1.7
2017-Apr-28 23:45 056 2 gusting 6 -1.7
2017-Apr-28 23:35 053 2 gusting 6 -1.1
2017-Apr-28 23:25 051 2 gusting 6 -1.1
2017-Apr-28 23:15 051 3 gusting 6 -1.1
2017-Apr-28 23:05 050 2 gusting 6 -1.1
2017-Apr-28 22:55 055 2 gusting 6 -1.1
2017-Apr-28 22:45 053 2 gusting 6 -1.1
2017-Apr-28 22:35 055 3 gusting 6 -1.1
2017-Apr-28 22:25 049 2 gusting 6 -0.6
2017-Apr-28 22:15 054 3 gusting 6 -0.6
2017-Apr-28 22:05 058 3 gusting 7 -0.6
2017-Apr-28 21:55 053 3 gusting 5 -0.6
2017-Apr-28 21:45 053 2 gusting 6 -0.6
2017-Apr-28 21:35 054 2 gusting 5 -0.0
2017-Apr-28 21:25 052 2 gusting 6 -0.0
2017-Apr-28 21:15 054 3 gusting 6 -0.0
2017-Apr-28 21:05 054 2 gusting 6 -0.0
2017-Apr-28 20:55 054 3 gusting 6 -0.0
2017-Apr-28 20:45 055 2 gusting 5 0.6
2017-Apr-28 20:35 056 3 gusting 6 0.6
2017-Apr-28 20:25 054 3 gusting 7 0.6
2017-Apr-28 20:15 053 2 gusting 6 0.6
2017-Apr-28 20:05 057 2 gusting 5 0.6
2017-Apr-28 19:55 056 3 gusting 6 0.6
2017-Apr-28 19:45 059 2 gusting 5 0.6
2017-Apr-28 19:35 059 3 gusting 6 0.6
2017-Apr-28 19:25 056 3 gusting 6 1.1
2017-Apr-28 19:15 060 2 gusting 6 1.1
2017-Apr-28 19:05 054 2 gusting 6 1.1
2017-Apr-28 18:55 056 2 gusting 5 1.1
2017-Apr-28 18:45 054 1 gusting 4 1.7
2017-Apr-28 18:35 050 1 gusting 2 1.7
2017-Apr-28 18:25 054 1 gusting 3 1.7
2017-Apr-28 18:15 057 1 gusting 4 2.2
2017-Apr-28 18:05 050 1 gusting 5 2.2
2017-Apr-28 17:55 056 2 gusting 5 2.2
2017-Apr-28 17:45 061 2 gusting 6 2.8
2017-Apr-28 17:35 053 1 gusting 2 2.8
2017-Apr-28 17:25 047 0 gusting 3 2.8
2017-Apr-28 17:15 057 1 gusting 4 3.3
2017-Apr-28 17:05 049 1 gusting 4 3.3
2017-Apr-28 16:55 056 1 gusting 5 3.3
2017-Apr-28 16:45 054 2 gusting 5 3.9
2017-Apr-28 16:35 057 2 gusting 7 3.9
2017-Apr-28 16:25 041 2 gusting 5 4.4
2017-Apr-28 16:15 030 2 gusting 6 4.4
2017-Apr-28 16:05 054 3 gusting 6 4.4
2017-Apr-28 15:55 055 2 gusting 5 4.4
2017-Apr-28 15:45 053 3 gusting 7 4.4
2017-Apr-28 15:35 061 3 gusting 6 5.0
2017-Apr-28 15:25 036 3 gusting 9 5.0
2017-Apr-28 15:15 041 2 gusting 8 5.0
2017-Apr-28 15:05 035 3 gusting 7 5.0
2017-Apr-28 14:55 050 3 gusting 6 5.0
2017-Apr-28 14:45 065 3 gusting 8 5.0
2017-Apr-28 14:35 037 1 gusting 4 5.6
2017-Apr-28 14:25 050 1 gusting 6 5.6
2017-Apr-28 14:15 049 2 gusting 6 5.6
2017-Apr-28 14:05 037 3 gusting 7 5.0
2017-Apr-28 13:55 024 3 gusting 9 5.6
2017-Apr-28 13:45 031 4 gusting 7 6.1
2017-Apr-28 13:35 056 1 gusting 5 7.2
2017-Apr-28 13:25 061 3 gusting 6 7.2
2017-Apr-28 13:15 052 4 gusting 11 7.2
2017-Apr-28 13:05 057 0 gusting 4 7.8
2017-Apr-28 12:55 313 0 gusting 6 7.8
2017-Apr-28 12:45 358 1 gusting 5 7.8
2017-Apr-28 12:35 082 7.8
2017-Apr-28 12:25 354 1 gusting 4 7.2
2017-Apr-28 12:15 012 0 gusting 2 5.6
2017-Apr-28 12:05 248 0 gusting 3 5.6
2017-Apr-28 11:55 014 0 gusting 3 5.6
2017-Apr-28 11:45 032 0 gusting 4 5.6
2017-Apr-28 11:35 307 5.6
2017-Apr-28 11:25 262 0 gusting 2 5.6
2017-Apr-28 11:15 016 0 gusting 4 5.6
2017-Apr-28 11:05 268 1 gusting 4 6.1
2017-Apr-28 10:55 229 1 gusting 5 6.1
2017-Apr-28 10:45 250 1 gusting 3 5.6
2017-Apr-28 10:35 197 0 gusting 3 5.0
2017-Apr-28 10:25 213 1 gusting 2 5.0
2017-Apr-28 10:15 214 1 gusting 3 5.0
2017-Apr-28 10:05 238 4.4
2017-Apr-28 09:55 200 0 gusting 1 4.4
2017-Apr-28 09:45 193 0 gusting 2 4.4
2017-Apr-28 09:35 197 0 gusting 2 5.0
2017-Apr-28 09:25 211 1 gusting 2 5.6
2017-Apr-28 09:15 213 1 gusting 3 6.1
2017-Apr-28 09:05 210 1 gusting 3 5.0
2017-Apr-28 08:55 228 1 gusting 4 5.0
2017-Apr-28 08:45 225 2 gusting 4 5.0
2017-Apr-28 08:35 218 1 gusting 2 5.0
2017-Apr-28 08:25 230 0 gusting 2 5.0
2017-Apr-28 08:15 211 0 gusting 2 5.6
2017-Apr-28 08:05 207 1 gusting 2 5.6
2017-Apr-28 07:55 204 1 gusting 3 5.0
2017-Apr-28 07:45 208 1 gusting 3 5.0
2017-Apr-28 07:35 207 0 gusting 1 3.3
2017-Apr-28 07:25 188 0 gusting 1 3.3
2017-Apr-28 07:15 206 0 gusting 1 3.3
2017-Apr-28 07:05 203 0 gusting 0 3.3
2017-Apr-28 06:55 205 0 gusting 0 3.3
2017-Apr-28 06:45 226 2.8
2017-Apr-28 06:35 229 2.2
2017-Apr-28 06:25 220 0 gusting 0 2.8
2017-Apr-28 06:15 208 0 gusting 0 3.3
2017-Apr-28 06:05 207 2.8
2017-Apr-28 05:55 210 3.3
2017-Apr-28 05:45 225 4.4
2017-Apr-28 05:35 4.4
2017-Apr-28 05:25 3.9
2017-Apr-28 05:15 021 3.3
2017-Apr-28 05:05 2.8
2017-Apr-28 04:55 019 1.7
2017-Apr-28 04:45 235 -0.0
2017-Apr-28 04:35 237 -0.0
2017-Apr-28 04:25 333 -0.0
2017-Apr-28 04:15 253 -0.0
2017-Apr-28 04:05 225 -0.0
2017-Apr-28 03:55 352 -0.0
2017-Apr-28 03:45 277 0 gusting 8 -0.0
2017-Apr-28 03:35 244 -0.0
2017-Apr-28 03:25 225 -0.6
2017-Apr-28 03:15 022 -1.1
2017-Apr-28 03:05 335 -1.1
2017-Apr-28 02:55 225 -1.7
2017-Apr-28 02:45 276 -1.7
2017-Apr-28 02:35 225 -1.7
2017-Apr-28 02:25 249 -2.2
2017-Apr-28 02:15 247 -2.2
2017-Apr-28 02:05 202 -2.2
2017-Apr-28 01:55 225 -2.2
2017-Apr-28 01:45 -1.7
2017-Apr-28 01:35 -1.7
2017-Apr-28 01:25 -1.1
2017-Apr-28 01:15 294 -1.1
2017-Apr-28 01:05 250 -1.1
2017-Apr-28 00:55 230 -0.6
2017-Apr-28 00:45 252 -0.6
2017-Apr-28 00:35 268 -0.6
2017-Apr-28 00:25 272 -0.6
2017-Apr-28 00:15 241 -0.6
2017-Apr-28 00:05 245 -0.6
2017-Apr-27 23:55 243 -0.6
2017-Apr-27 23:45 227 0 gusting 1 -0.6
2017-Apr-27 23:35 225 0 gusting 1 -0.6
2017-Apr-27 23:25 -0.0
2017-Apr-27 23:15 -0.0
2017-Apr-27 23:05 278 -0.0